createdAt,value
2022-12-22T00:01:50.425Z,20.67
2022-12-22T00:04:36.431Z,18.63
2022-12-22T00:07:22.255Z,20.20
2022-12-22T00:10:08.085Z,18.90
2022-12-22T00:12:54.135Z,20.27
2022-12-22T00:15:41.412Z,18.37
2022-12-22T00:18:34.304Z,19.03
2022-12-22T00:21:20.624Z,18.63
2022-12-22T00:24:06.432Z,18.43
2022-12-22T00:26:54.751Z,18.13
2022-12-22T00:29:40.946Z,19.83
2022-12-22T00:32:33.296Z,18.37
2022-12-22T00:35:20.700Z,17.33
2022-12-22T00:38:06.589Z,20.03
2022-12-22T00:40:52.599Z,17.87
2022-12-22T00:43:38.296Z,18.07
2022-12-22T00:46:24.025Z,17.20
2022-12-22T00:49:09.809Z,17.17
2022-12-22T00:51:55.677Z,17.67
2022-12-22T00:54:42.145Z,17.10
2022-12-22T00:57:38.480Z,17.37
2022-12-22T01:00:28.791Z,16.07
2022-12-22T01:03:14.764Z,16.67
2022-12-22T01:06:00.741Z,16.27
2022-12-22T01:08:47.259Z,15.50
2022-12-22T01:11:33.238Z,16.93
2022-12-22T01:14:19.077Z,16.43
2022-12-22T01:17:04.593Z,16.90
2022-12-22T01:19:50.253Z,16.57
2022-12-22T01:22:39.438Z,16.33
2022-12-22T01:25:31.861Z,15.53
2022-12-22T01:28:17.729Z,15.57
2022-12-22T01:31:04.636Z,16.03
2022-12-22T01:33:50.019Z,16.23
2022-12-22T01:36:36.587Z,15.50
2022-12-22T01:39:23.366Z,16.00
2022-12-22T01:42:09.293Z,16.27
2022-12-22T01:44:55.119Z,16.57
2022-12-22T01:47:52.566Z,16.70
2022-12-22T01:50:46.219Z,16.53
2022-12-22T01:53:37.899Z,17.47
2022-12-22T01:56:25.055Z,17.10
2022-12-22T01:59:14.496Z,16.20
2022-12-22T02:02:02.224Z,18.93
2022-12-22T02:05:02.990Z,17.27
2022-12-22T02:08:22.751Z,18.03
2022-12-22T02:11:28.682Z,17.00
2022-12-22T02:14:39.058Z,18.17
2022-12-22T02:17:50.867Z,18.10
2022-12-22T02:20:42.577Z,17.60
2022-12-22T02:23:44.007Z,19.10
2022-12-22T02:26:52.182Z,17.53
2022-12-22T02:29:48.654Z,19.80
2022-12-22T02:32:35.133Z,18.53
2022-12-22T02:35:20.846Z,17.20
2022-12-22T02:38:32.155Z,19.10
2022-12-22T02:41:31.248Z,18.17
2022-12-22T02:44:19.663Z,18.03
2022-12-22T02:47:26.267Z,16.97
2022-12-22T02:50:16.835Z,18.10
2022-12-22T02:53:04.352Z,18.10
2022-12-22T02:55:51.029Z,18.07
2022-12-22T02:58:37.850Z,18.50
2022-12-22T03:01:24.792Z,19.60
2022-12-22T03:04:11.142Z,18.23
2022-12-22T03:06:56.990Z,18.07
2022-12-22T03:09:42.560Z,18.33
2022-12-22T03:12:28.111Z,20.03
2022-12-22T03:15:14.008Z,19.00
2022-12-22T03:17:59.812Z,21.13
2022-12-22T03:20:45.684Z,21.23
2022-12-22T03:23:31.524Z,21.03
2022-12-22T03:25:58.702Z,20.60
2022-12-22T03:28:27.865Z,21.63
2022-12-22T03:31:08.484Z,24.20
2022-12-22T03:33:35.686Z,24.40
2022-12-22T03:36:03.571Z,28.43
2022-12-22T03:38:30.972Z,40.63
2022-12-22T03:40:58.240Z,33.73
2022-12-22T03:43:44.079Z,23.13
2022-12-22T03:46:31.368Z,23.73
2022-12-22T03:49:19.647Z,22.40
2022-12-22T03:51:49.306Z,32.13
2022-12-22T03:54:26.936Z,21.33
2022-12-22T03:56:54.751Z,40.53
2022-12-22T03:59:22.324Z,23.00
2022-12-22T04:01:52.951Z,21.57
2022-12-22T04:04:22.979Z,25.93
2022-12-22T04:06:51.099Z,26.30
2022-12-22T04:09:18.278Z,25.37
2022-12-22T04:12:04.124Z,21.73
2022-12-22T04:14:34.364Z,21.67
2022-12-22T04:17:06.819Z,21.73
2022-12-22T04:19:34.162Z,21.63
2022-12-22T04:22:01.550Z,23.30
2022-12-22T04:24:28.813Z,21.90
2022-12-22T04:26:56.193Z,23.10
2022-12-22T04:29:23.488Z,22.77
2022-12-22T04:31:51.338Z,20.57
2022-12-22T04:34:19.594Z,23.07
2022-12-22T04:36:46.852Z,21.83
2022-12-22T04:39:14.196Z,22.30
2022-12-22T04:41:41.592Z,24.03
2022-12-22T04:44:08.733Z,21.70
2022-12-22T04:46:35.960Z,22.93
2022-12-22T04:49:03.116Z,24.10
2022-12-22T04:51:30.421Z,22.50
2022-12-22T04:53:57.647Z,22.30
2022-12-22T04:56:24.989Z,21.40
2022-12-22T04:58:52.274Z,21.80
2022-12-22T05:01:20.099Z,21.63
2022-12-22T05:03:47.791Z,22.93
2022-12-22T05:06:15.694Z,23.77
2022-12-22T05:08:43.315Z,21.30
2022-12-22T05:11:11.222Z,21.33
2022-12-22T05:13:38.827Z,20.07
2022-12-22T05:16:14.376Z,19.67
2022-12-22T05:18:43.727Z,19.40
2022-12-22T05:21:22.494Z,21.37
2022-12-22T05:23:50.587Z,20.90
2022-12-22T05:26:19.677Z,20.63
2022-12-22T05:28:48.421Z,23.00
2022-12-22T05:31:18.622Z,23.60
2022-12-22T05:33:47.050Z,21.90
2022-12-22T05:36:14.701Z,23.63
2022-12-22T05:38:42.441Z,20.50
2022-12-22T05:41:09.648Z,22.60
2022-12-22T05:43:37.353Z,21.03
2022-12-22T05:46:06.939Z,21.20
2022-12-22T05:48:38.688Z,21.10
2022-12-22T05:51:08.565Z,20.03
2022-12-22T05:53:36.799Z,21.97
2022-12-22T05:56:04.627Z,23.40
2022-12-22T05:58:31.879Z,21.60
2022-12-22T06:01:00.684Z,21.67
2022-12-22T06:03:29.477Z,19.93
2022-12-22T06:05:58.349Z,19.50
2022-12-22T06:08:26.762Z,21.20
2022-12-22T06:10:56.161Z,21.63
2022-12-22T06:13:24.345Z,22.80
2022-12-22T06:15:52.254Z,20.67
2022-12-22T06:18:19.435Z,21.17
2022-12-22T06:20:47.761Z,20.30
2022-12-22T06:23:15.788Z,21.33
2022-12-22T06:25:43.073Z,20.17
2022-12-22T06:28:10.330Z,22.83
2022-12-22T06:30:38.673Z,21.67
2022-12-22T06:33:05.870Z,21.93
2022-12-22T06:35:33.137Z,22.07
2022-12-22T06:38:00.498Z,19.07
2022-12-22T06:40:27.693Z,20.60
2022-12-22T06:43:10.436Z,20.60
2022-12-22T06:45:42.944Z,22.43
2022-12-22T06:48:12.566Z,23.57
2022-12-22T06:50:40.628Z,22.97
2022-12-22T06:53:08.194Z,21.53
2022-12-22T06:55:36.811Z,20.50
2022-12-22T06:58:05.129Z,20.53
2022-12-22T07:00:32.548Z,20.67
2022-12-22T07:02:59.954Z,21.17
2022-12-22T07:05:27.500Z,22.10
2022-12-22T07:07:54.768Z,21.30
2022-12-22T07:10:41.925Z,18.93
2022-12-22T07:13:19.765Z,22.70
2022-12-22T07:15:53.727Z,22.60
2022-12-22T07:18:27.656Z,23.43
2022-12-22T07:20:55.445Z,20.37
2022-12-22T07:23:22.737Z,21.00
2022-12-22T07:25:50.007Z,21.53
2022-12-22T07:28:20.887Z,22.83
2022-12-22T07:30:52.388Z,20.30
2022-12-22T07:33:20.069Z,22.07
2022-12-22T07:35:47.282Z,20.93
2022-12-22T07:38:14.705Z,20.33
2022-12-22T07:40:43.442Z,20.50
2022-12-22T07:43:11.612Z,20.43
2022-12-22T07:45:38.802Z,20.63
2022-12-22T07:48:26.330Z,20.47
2022-12-22T07:50:55.488Z,20.10
2022-12-22T07:53:22.651Z,21.13
2022-12-22T07:55:49.833Z,19.93
2022-12-22T07:58:17.120Z,21.90
2022-12-22T08:00:44.321Z,20.57
2022-12-22T08:03:11.578Z,20.60
2022-12-22T08:05:39.291Z,20.87
2022-12-22T08:08:06.429Z,22.03
2022-12-22T08:10:33.910Z,21.00
2022-12-22T08:13:00.974Z,19.77
2022-12-22T08:15:28.214Z,20.43
2022-12-22T08:17:56.678Z,22.67
2022-12-22T08:20:23.864Z,23.73
2022-12-22T08:22:50.993Z,33.93
2022-12-22T08:25:18.547Z,28.03
2022-12-22T08:27:51.252Z,22.97
2022-12-22T08:30:18.581Z,21.93
2022-12-22T08:32:48.871Z,21.60
2022-12-22T08:35:16.162Z,21.40
2022-12-22T08:37:46.161Z,23.67
2022-12-22T08:40:18.176Z,23.20
2022-12-22T08:42:46.963Z,23.13
2022-12-22T08:45:14.090Z,22.27
2022-12-22T08:47:41.419Z,23.07
2022-12-22T08:50:09.199Z,20.60
2022-12-22T08:52:36.542Z,22.20
2022-12-22T08:55:03.979Z,24.03
2022-12-22T08:57:31.177Z,24.10
2022-12-22T08:59:58.276Z,23.90
2022-12-22T09:02:25.602Z,21.50
2022-12-22T09:04:52.807Z,23.20
2022-12-22T09:07:20.096Z,22.50
2022-12-22T09:09:47.217Z,23.60
2022-12-22T09:12:14.313Z,21.10
2022-12-22T09:14:41.688Z,22.63
2022-12-22T09:17:08.960Z,21.03
2022-12-22T09:19:36.591Z,21.27
2022-12-22T09:22:04.110Z,19.77
2022-12-22T09:24:31.380Z,19.27
2022-12-22T09:26:58.633Z,20.87
2022-12-22T09:29:26.126Z,19.37
2022-12-22T09:31:53.473Z,19.33
2022-12-22T09:34:21.031Z,20.07
2022-12-22T09:36:48.319Z,19.20
2022-12-22T09:39:16.412Z,19.50
2022-12-22T09:41:51.355Z,20.67
2022-12-22T09:44:18.579Z,21.80
2022-12-22T09:46:46.098Z,19.23
2022-12-22T09:49:17.350Z,20.73
2022-12-22T09:51:49.411Z,18.70
2022-12-22T09:54:16.812Z,20.93
2022-12-22T09:56:44.189Z,21.07
2022-12-22T09:59:16.687Z,20.30
2022-12-22T10:01:56.771Z,18.63
2022-12-22T10:04:43.010Z,20.30
2022-12-22T10:07:25.016Z,20.80
2022-12-22T10:09:52.447Z,20.67
2022-12-22T10:12:24.193Z,20.00
2022-12-22T10:14:53.379Z,20.27
2022-12-22T10:17:32.562Z,21.37
2022-12-22T10:20:27.014Z,19.47
2022-12-22T10:23:02.568Z,22.63
2022-12-22T10:28:33.609Z,20.37
2022-12-22T10:31:21.203Z,21.27
2022-12-22T10:33:57.558Z,20.03
2022-12-22T10:36:31.489Z,21.90
2022-12-22T10:39:08.690Z,21.20
2022-12-22T10:41:47.366Z,20.97
2022-12-22T10:44:17.254Z,21.03
2022-12-22T10:46:53.473Z,21.57
2022-12-22T10:49:26.938Z,20.97
2022-12-22T10:51:57.303Z,20.90
2022-12-22T10:54:37.988Z,21.30
2022-12-22T10:57:14.191Z,20.03
2022-12-22T11:00:02.510Z,21.23
2022-12-22T11:02:39.120Z,21.13
2022-12-22T11:05:11.519Z,20.30
2022-12-22T11:07:42.191Z,21.30
2022-12-22T11:10:15.459Z,18.80
2022-12-22T11:13:00.451Z,18.73
2022-12-22T11:15:40.721Z,18.27
2022-12-22T11:18:08.055Z,20.83
2022-12-22T11:21:20.355Z,18.60
2022-12-22T11:24:04.970Z,19.10
2022-12-22T11:26:48.576Z,18.50
2022-12-22T11:29:27.789Z,18.43
2022-12-22T11:32:33.386Z,19.30
2022-12-22T11:35:28.597Z,18.70
2022-12-22T11:38:14.313Z,19.97
2022-12-22T11:41:10.940Z,22.20
2022-12-22T11:44:07.470Z,21.40
2022-12-22T11:46:54.693Z,22.63
2022-12-22T11:49:40.971Z,20.87
2022-12-22T11:52:19.923Z,21.20
2022-12-22T11:55:05.418Z,21.40
2022-12-22T11:57:56.655Z,22.83
2022-12-22T12:00:32.571Z,21.20
2022-12-22T12:03:19.451Z,20.47
2022-12-22T12:06:23.838Z,21.03
2022-12-22T12:09:14.175Z,19.63
2022-12-22T12:11:52.610Z,20.53
2022-12-22T12:14:37.822Z,20.07
2022-12-22T12:17:26.953Z,18.80
2022-12-22T12:20:18.821Z,20.00
2022-12-22T12:23:09.054Z,20.27
2022-12-22T12:26:10.276Z,18.83
2022-12-22T12:28:57.660Z,19.60
2022-12-22T12:31:32.650Z,19.73
2022-12-22T12:34:02.292Z,19.40
2022-12-22T12:36:44.960Z,20.53
2022-12-22T12:39:18.869Z,19.30
2022-12-22T12:42:00.997Z,18.20
2022-12-22T12:44:32.841Z,18.30
2022-12-22T12:47:29.541Z,19.37
2022-12-22T12:50:16.897Z,19.73
2022-12-22T12:52:48.744Z,19.10
2022-12-22T12:55:54.977Z,19.43
2022-12-22T12:58:39.956Z,19.83
2022-12-22T13:01:11.995Z,18.77
2022-12-22T13:06:51.319Z,18.27
2022-12-22T13:09:50.608Z,19.80
2022-12-22T13:12:51.252Z,19.10
2022-12-22T13:15:28.352Z,19.43
2022-12-22T13:17:55.770Z,20.30
2022-12-22T13:20:34.156Z,21.03
2022-12-22T13:23:04.884Z,21.67
2022-12-22T13:25:53.309Z,21.17
2022-12-22T13:28:23.850Z,20.43
2022-12-22T13:30:58.760Z,20.53
2022-12-22T13:33:30.450Z,21.13
2022-12-22T13:35:59.583Z,21.50
2022-12-22T13:38:31.592Z,20.33
2022-12-22T13:41:26.511Z,22.57
2022-12-22T13:44:04.668Z,24.13
2022-12-22T13:46:38.388Z,23.57
2022-12-22T13:49:10.244Z,21.87
2022-12-22T13:51:38.860Z,21.60
2022-12-22T13:54:12.597Z,21.70
2022-12-22T13:56:46.214Z,25.30
2022-12-22T13:59:35.542Z,28.33
2022-12-22T14:02:15.177Z,26.53
2022-12-22T14:05:04.494Z,21.30
2022-12-22T14:07:31.959Z,21.70
2022-12-22T14:09:59.266Z,22.73
2022-12-22T14:12:34.729Z,21.73
2022-12-22T14:15:03.321Z,26.00
2022-12-22T14:17:35.086Z,27.03
2022-12-22T14:20:27.770Z,36.43
2022-12-22T14:23:02.910Z,25.07
2022-12-22T14:25:43.279Z,31.57
2022-12-22T14:28:22.535Z,31.67
2022-12-22T14:30:56.882Z,24.40
2022-12-22T14:33:24.035Z,23.13
2022-12-22T14:35:51.382Z,23.23
2022-12-22T14:38:21.708Z,24.17
2022-12-22T14:40:54.563Z,29.17
2022-12-22T14:43:28.445Z,37.03
2022-12-22T14:46:08.429Z,52.07
2022-12-22T14:48:40.644Z,37.07
2022-12-22T14:51:08.084Z,31.87
2022-12-22T14:53:46.842Z,30.77
2022-12-22T14:56:17.726Z,32.17
2022-12-22T14:58:46.692Z,36.33
2022-12-22T15:01:16.762Z,30.60
2022-12-22T15:03:44.815Z,26.97
2022-12-22T15:06:37.053Z,29.00
2022-12-22T15:09:09.194Z,22.93
2022-12-22T15:11:39.422Z,26.20
2022-12-22T15:14:15.728Z,51.40
2022-12-22T15:16:44.082Z,34.73
2022-12-22T15:19:23.683Z,31.40
2022-12-22T15:21:51.946Z,29.27
2022-12-22T15:24:19.838Z,22.67
2022-12-22T15:26:47.959Z,21.23
2022-12-22T15:29:15.185Z,25.10
2022-12-22T15:31:43.876Z,37.87
2022-12-22T15:34:27.299Z,53.23
2022-12-22T15:36:55.059Z,28.87
2022-12-22T15:39:24.819Z,38.70
2022-12-22T15:41:52.169Z,20.70
2022-12-22T15:44:19.372Z,21.27
2022-12-22T15:46:55.454Z,23.47
2022-12-22T15:49:26.608Z,21.00
2022-12-22T15:52:00.816Z,22.63
2022-12-22T15:54:29.872Z,21.30
2022-12-22T15:56:57.295Z,25.70
2022-12-22T15:59:27.571Z,22.03
2022-12-22T16:02:01.372Z,21.53
2022-12-22T16:04:30.648Z,22.10
2022-12-22T16:06:59.755Z,20.13
2022-12-22T16:09:33.008Z,22.07
2022-12-22T16:12:00.292Z,20.67
2022-12-22T16:14:28.602Z,22.77
2022-12-22T16:16:57.511Z,20.77
2022-12-22T16:19:24.698Z,38.13
2022-12-22T16:21:53.670Z,32.60
2022-12-22T16:24:28.405Z,56.73
2022-12-22T16:26:58.227Z,110.77
2022-12-22T16:29:26.645Z,68.03
2022-12-22T16:31:54.007Z,66.07
2022-12-22T16:34:21.379Z,51.40
2022-12-22T16:36:48.560Z,32.20
2022-12-22T16:39:15.797Z,24.23
2022-12-22T16:41:44.885Z,21.23
2022-12-22T16:47:06.319Z,17.77
2022-12-22T16:49:33.538Z,19.47
2022-12-22T16:52:00.769Z,19.77
2022-12-22T16:54:28.921Z,22.07
2022-12-22T16:56:56.167Z,40.97
2022-12-22T16:59:23.489Z,48.73
2022-12-22T17:01:55.095Z,40.80
2022-12-22T17:04:28.652Z,34.77
2022-12-22T17:06:58.510Z,27.20
2022-12-22T17:09:47.809Z,22.77
2022-12-22T17:12:21.763Z,21.00
2022-12-22T17:14:50.170Z,21.07
2022-12-22T17:17:28.696Z,23.23
2022-12-22T17:19:58.568Z,26.23
2022-12-22T17:22:33.904Z,27.10
2022-12-22T17:25:05.230Z,28.53
2022-12-22T17:27:34.277Z,28.83
2022-12-22T17:30:03.931Z,30.53
2022-12-22T17:32:32.188Z,30.77
2022-12-22T17:34:59.299Z,28.90
2022-12-22T17:37:26.742Z,28.77
2022-12-22T17:40:01.272Z,29.83
2022-12-22T17:42:28.794Z,29.00
2022-12-22T17:44:56.106Z,29.90
2022-12-22T17:47:31.179Z,31.57
2022-12-22T17:50:00.917Z,32.43
2022-12-22T17:52:28.309Z,34.10
2022-12-22T17:54:55.859Z,38.67
2022-12-22T17:57:25.715Z,33.60
2022-12-22T17:59:52.957Z,29.47
2022-12-22T18:02:22.543Z,37.87
2022-12-22T18:04:50.581Z,39.83
2022-12-22T18:07:21.888Z,32.83
2022-12-22T18:09:51.531Z,35.77
2022-12-22T18:12:22.030Z,30.10
2022-12-22T18:14:51.824Z,35.77
2022-12-22T18:17:33.376Z,37.13
2022-12-22T18:20:03.126Z,47.03
2022-12-22T18:22:30.643Z,46.03
2022-12-22T18:24:58.327Z,44.83
2022-12-22T18:27:25.454Z,45.43
2022-12-22T18:29:52.749Z,52.03
2022-12-22T18:32:26.641Z,52.70
2022-12-22T18:34:55.160Z,43.43
2022-12-22T18:37:22.402Z,36.93
2022-12-22T18:39:49.717Z,35.97
2022-12-22T18:42:21.623Z,34.83
2022-12-22T18:44:50.215Z,32.97
2022-12-22T18:47:17.719Z,30.67
2022-12-22T18:49:45.557Z,30.47
2022-12-22T18:52:21.715Z,30.00
2022-12-22T18:54:51.028Z,30.07
2022-12-22T18:57:20.211Z,28.37
2022-12-22T18:59:48.902Z,28.73
2022-12-22T19:02:29.211Z,30.20
2022-12-22T19:04:57.495Z,29.03
2022-12-22T19:07:26.890Z,31.27
2022-12-22T19:09:54.049Z,32.40
2022-12-22T19:12:23.508Z,30.40
2022-12-22T19:14:54.036Z,29.97
2022-12-22T19:17:26.487Z,29.43
2022-12-22T19:19:53.679Z,28.80
2022-12-22T19:22:20.830Z,28.80
2022-12-22T19:24:49.395Z,28.43
2022-12-22T19:27:26.114Z,32.80
2022-12-22T19:30:04.034Z,29.00
2022-12-22T19:32:41.441Z,28.63
2022-12-22T19:35:20.747Z,29.07
2022-12-22T19:37:49.792Z,29.17
2022-12-22T19:40:19.136Z,29.27
2022-12-22T19:42:50.409Z,31.80
2022-12-22T19:45:22.124Z,43.17
2022-12-22T19:47:55.763Z,44.13
2022-12-22T19:50:28.508Z,44.63
2022-12-22T19:52:58.988Z,40.67
2022-12-22T19:55:29.730Z,40.97
2022-12-22T19:57:57.085Z,35.87
2022-12-22T20:00:27.267Z,39.37
2022-12-22T20:02:58.144Z,41.53
2022-12-22T20:05:25.336Z,35.57
2022-12-22T20:07:55.017Z,30.13
2022-12-22T20:10:23.921Z,31.63
2022-12-22T20:12:54.331Z,30.33
2022-12-22T20:15:25.045Z,27.83
2022-12-22T20:17:54.155Z,26.70
2022-12-22T20:20:34.882Z,25.20
2022-12-22T20:23:13.320Z,25.23
2022-12-22T20:25:43.873Z,25.47
2022-12-22T20:28:26.117Z,25.27
2022-12-22T20:30:55.300Z,26.10
2022-12-22T20:33:24.805Z,27.27
2022-12-22T20:35:53.582Z,26.63
2022-12-22T20:38:27.701Z,27.80
2022-12-22T20:40:55.004Z,27.50
2022-12-22T20:43:25.182Z,27.20
2022-12-22T20:45:57.750Z,26.47
2022-12-22T20:48:45.095Z,27.53
2022-12-22T20:51:16.410Z,25.47
2022-12-22T20:53:44.804Z,26.03
2022-12-22T20:56:37.941Z,26.43
2022-12-22T20:59:21.055Z,26.50
2022-12-22T21:01:51.137Z,24.53
2022-12-22T21:04:19.231Z,25.17
2022-12-22T21:06:53.735Z,26.40
2022-12-22T21:09:22.130Z,24.53
2022-12-22T21:11:50.077Z,24.40
2022-12-22T21:14:17.965Z,24.33
2022-12-22T21:16:45.498Z,24.43
2022-12-22T21:19:18.508Z,26.40
2022-12-22T21:21:46.553Z,23.20
2022-12-22T21:24:13.952Z,24.50
2022-12-22T21:26:43.852Z,24.50
2022-12-22T21:29:21.671Z,24.03
2022-12-22T21:31:49.016Z,25.73
2022-12-22T21:34:16.241Z,25.00
2022-12-22T21:36:46.126Z,23.20
2022-12-22T21:39:31.822Z,23.50
2022-12-22T21:42:01.819Z,23.80
2022-12-22T21:44:32.042Z,22.87
2022-12-22T21:46:59.961Z,21.73
2022-12-22T21:49:31.258Z,19.60
2022-12-22T21:51:58.573Z,21.07
2022-12-22T21:54:27.171Z,21.00
2022-12-22T21:56:55.632Z,21.80
2022-12-22T21:59:23.533Z,19.63
2022-12-22T22:01:56.004Z,20.03
2022-12-22T22:04:25.362Z,18.27
2022-12-22T22:06:52.971Z,18.67
2022-12-22T22:09:20.199Z,18.80
2022-12-22T22:12:06.172Z,18.47
2022-12-22T22:14:33.412Z,18.30
2022-12-22T22:17:00.483Z,18.40
2022-12-22T22:19:27.713Z,19.50
2022-12-22T22:21:54.939Z,18.60
2022-12-22T22:24:22.236Z,19.00
2022-12-22T22:26:51.925Z,18.33
2022-12-22T22:29:19.293Z,17.73
2022-12-22T22:31:46.623Z,18.37
2022-12-22T22:34:14.801Z,18.70
2022-12-22T22:36:42.302Z,17.07
2022-12-22T22:39:10.583Z,15.87
2022-12-22T22:41:43.001Z,15.67
2022-12-22T22:44:11.896Z,13.37
2022-12-22T22:46:39.571Z,12.77
2022-12-22T22:49:07.893Z,11.60
2022-12-22T22:51:35.120Z,11.43
2022-12-22T22:54:02.249Z,13.60
2022-12-22T22:56:29.474Z,13.43
2022-12-22T22:58:58.410Z,13.00
2022-12-22T23:01:25.859Z,13.77
2022-12-22T23:03:53.375Z,13.93
2022-12-22T23:06:21.715Z,11.97
2022-12-22T23:08:49.741Z,14.57
2022-12-22T23:11:17.756Z,16.17
2022-12-22T23:13:45.684Z,16.43
2022-12-22T23:16:12.962Z,18.53
2022-12-22T23:18:41.317Z,21.07
2022-12-22T23:21:09.794Z,22.23
2022-12-22T23:23:37.727Z,22.80
2022-12-22T23:26:06.216Z,22.70
2022-12-22T23:28:34.280Z,21.63
2022-12-22T23:31:01.710Z,21.00
2022-12-22T23:33:32.389Z,19.93
2022-12-22T23:35:59.686Z,21.00
2022-12-22T23:38:26.972Z,19.60
2022-12-22T23:41:03.398Z,18.67
2022-12-22T23:43:31.088Z,17.03
2022-12-22T23:45:59.633Z,17.50
2022-12-22T23:48:26.903Z,20.03
2022-12-22T23:50:54.321Z,19.80
2022-12-22T23:53:21.617Z,19.37
2022-12-22T23:55:49.611Z,18.60
2022-12-22T23:58:17.602Z,17.93
